createdAt,value
2023-05-17T00:01:48.535Z,90.79
2023-05-17T00:04:28.620Z,90.79
2023-05-17T00:06:55.493Z,90.73
2023-05-17T00:09:22.460Z,90.22
2023-05-17T00:11:49.415Z,89.87
2023-05-17T00:14:16.673Z,89.69
2023-05-17T00:16:44.592Z,89.99
2023-05-17T00:19:11.860Z,89.96
2023-05-17T00:21:39.943Z,89.52
2023-05-17T00:24:06.906Z,90.20
2023-05-17T00:26:34.033Z,90.12
2023-05-17T00:29:01.078Z,90.02
2023-05-17T00:31:28.341Z,89.83
2023-05-17T00:33:55.451Z,89.89
2023-05-17T00:36:22.591Z,90.26
2023-05-17T00:38:49.636Z,90.35
2023-05-17T00:41:17.653Z,90.69
2023-05-17T00:43:44.793Z,90.68
2023-05-17T00:46:12.650Z,90.67
2023-05-17T00:48:39.712Z,91.13
2023-05-17T00:51:07.019Z,90.93
2023-05-17T00:53:35.161Z,90.67
2023-05-17T00:56:06.430Z,90.78
2023-05-17T00:58:34.056Z,90.52
2023-05-17T01:01:01.530Z,90.68
2023-05-17T01:03:28.575Z,90.72
2023-05-17T01:05:56.974Z,90.34
2023-05-17T01:08:24.055Z,90.20
2023-05-17T01:10:53.665Z,90.11
2023-05-17T01:13:23.893Z,90.30
2023-05-17T01:15:53.923Z,89.96
2023-05-17T01:18:23.850Z,89.76
2023-05-17T01:20:51.342Z,89.61
2023-05-17T01:23:24.603Z,89.15
2023-05-17T01:26:10.185Z,89.54
2023-05-17T01:28:39.875Z,89.05
2023-05-17T01:31:09.129Z,88.78
2023-05-17T01:33:37.109Z,89.04
2023-05-17T01:36:06.193Z,88.97
2023-05-17T01:38:35.431Z,89.68
2023-05-17T01:41:04.925Z,90.46
2023-05-17T01:43:33.819Z,90.72
2023-05-17T01:46:00.364Z,91.60
2023-05-17T01:48:29.152Z,91.66
2023-05-17T01:50:57.893Z,91.34
2023-05-17T01:53:27.975Z,90.81
2023-05-17T01:55:57.129Z,91.10
2023-05-17T01:58:25.817Z,90.73
2023-05-17T02:00:53.534Z,90.08
2023-05-17T02:03:20.420Z,90.39
2023-05-17T02:05:51.807Z,90.44
2023-05-17T02:08:20.519Z,90.90
2023-05-17T02:10:47.249Z,91.15
2023-05-17T02:13:14.111Z,91.25
2023-05-17T02:15:40.875Z,90.92
2023-05-17T02:18:07.641Z,90.65
2023-05-17T02:20:37.292Z,91.20
2023-05-17T02:23:06.695Z,91.37
2023-05-17T02:25:35.726Z,92.04
2023-05-17T02:28:02.728Z,93.10
2023-05-17T02:30:29.391Z,93.48
2023-05-17T02:32:57.020Z,93.44
2023-05-17T02:35:26.375Z,93.23
2023-05-17T02:37:53.268Z,92.66
2023-05-17T02:40:22.388Z,93.14
2023-05-17T02:42:53.407Z,93.03
2023-05-17T02:45:23.551Z,92.79
2023-05-17T02:47:52.779Z,92.37
2023-05-17T02:50:19.502Z,91.65
2023-05-17T02:52:46.138Z,91.20
2023-05-17T02:55:12.822Z,91.67
2023-05-17T02:57:42.060Z,91.53
2023-05-17T03:00:11.520Z,92.16
2023-05-17T03:02:40.536Z,92.08
2023-05-17T03:05:08.399Z,92.43
2023-05-17T03:07:37.164Z,92.05
2023-05-17T03:10:03.934Z,92.17
2023-05-17T03:12:36.505Z,91.79
2023-05-17T03:15:10.565Z,91.88
2023-05-17T03:17:37.505Z,92.31
2023-05-17T03:20:07.887Z,93.11
2023-05-17T03:22:35.764Z,92.86
2023-05-17T03:25:03.060Z,93.26
2023-05-17T03:27:32.347Z,93.05
2023-05-17T03:29:59.064Z,93.13
2023-05-17T03:32:26.819Z,92.88
2023-05-17T03:34:59.418Z,92.72
2023-05-17T03:37:26.589Z,92.39
2023-05-17T03:39:53.348Z,92.52
2023-05-17T03:42:20.471Z,91.78
2023-05-17T03:44:48.084Z,91.14
2023-05-17T03:47:17.331Z,91.27
2023-05-17T03:49:51.928Z,91.29
2023-05-17T03:52:18.870Z,91.21
2023-05-17T03:54:48.436Z,91.44
2023-05-17T03:57:19.755Z,90.80
2023-05-17T03:59:48.788Z,91.12
2023-05-17T04:02:18.989Z,90.99
2023-05-17T04:04:51.522Z,90.68
2023-05-17T04:07:21.374Z,90.27
2023-05-17T04:09:53.937Z,89.75
2023-05-17T04:12:21.720Z,89.19
2023-05-17T04:14:50.781Z,88.42
2023-05-17T04:17:17.597Z,88.35
2023-05-17T04:19:48.959Z,87.58
2023-05-17T04:22:24.717Z,86.98
2023-05-17T04:24:54.378Z,86.47
2023-05-17T04:27:23.740Z,87.36
2023-05-17T04:29:55.887Z,87.72
2023-05-17T04:32:23.266Z,87.87
2023-05-17T04:34:52.327Z,87.72
2023-05-17T04:37:19.913Z,88.98
2023-05-17T04:39:50.430Z,88.37
2023-05-17T04:42:20.182Z,87.44
2023-05-17T04:44:52.074Z,88.08
2023-05-17T04:47:19.028Z,88.17
2023-05-17T04:49:45.717Z,88.13
2023-05-17T04:52:14.665Z,87.32
2023-05-17T04:54:41.377Z,86.76
2023-05-17T04:57:08.251Z,86.87
2023-05-17T04:59:56.841Z,86.70
2023-05-17T05:02:24.609Z,86.53
2023-05-17T05:04:51.405Z,86.72
2023-05-17T05:07:23.502Z,86.39
2023-05-17T05:09:50.800Z,84.49
2023-05-17T05:12:20.809Z,85.24
2023-05-17T05:14:47.899Z,85.36
2023-05-17T05:17:19.848Z,86.33
2023-05-17T05:19:49.337Z,86.45
2023-05-17T05:22:17.583Z,85.54
2023-05-17T05:24:49.252Z,85.61
2023-05-17T05:27:16.186Z,84.97
2023-05-17T05:29:47.945Z,84.28
2023-05-17T05:32:17.736Z,83.04
2023-05-17T05:34:46.197Z,83.05
2023-05-17T05:37:13.547Z,82.84
2023-05-17T05:39:42.809Z,81.06
2023-05-17T05:42:11.803Z,82.91
2023-05-17T05:44:41.785Z,82.87
2023-05-17T05:47:09.205Z,81.21
2023-05-17T05:49:36.330Z,81.45
2023-05-17T05:52:06.139Z,79.56
2023-05-17T05:54:39.288Z,80.89
2023-05-17T05:57:08.478Z,80.83
2023-05-17T05:59:39.670Z,80.97
2023-05-17T06:02:06.753Z,81.34
2023-05-17T06:04:44.691Z,81.02
2023-05-17T06:07:15.707Z,79.55
2023-05-17T06:09:42.409Z,79.56
2023-05-17T06:12:09.472Z,78.53
2023-05-17T06:14:37.663Z,79.49
2023-05-17T06:17:04.534Z,80.59
2023-05-17T06:19:31.322Z,79.22
2023-05-17T06:21:58.602Z,79.75
2023-05-17T06:24:25.341Z,79.97
2023-05-17T06:26:52.017Z,78.80
2023-05-17T06:29:18.693Z,79.43
2023-05-17T06:31:45.499Z,79.52
2023-05-17T06:34:14.832Z,80.16
2023-05-17T06:36:41.870Z,81.01
2023-05-17T06:39:08.689Z,81.26
2023-05-17T06:41:35.616Z,82.13
2023-05-17T06:44:07.706Z,81.84
2023-05-17T06:46:36.884Z,81.78
2023-05-17T06:49:04.393Z,81.53
2023-05-17T06:51:31.650Z,81.75
2023-05-17T06:53:58.415Z,81.64
2023-05-17T06:56:25.215Z,80.90
2023-05-17T06:58:54.954Z,80.13
2023-05-17T07:01:21.613Z,80.11
2023-05-17T07:03:50.493Z,80.20
2023-05-17T07:06:17.233Z,80.60
2023-05-17T07:08:47.032Z,80.21
2023-05-17T07:11:19.043Z,78.93
2023-05-17T07:13:46.859Z,77.79
2023-05-17T07:16:13.636Z,78.73
2023-05-17T07:18:40.558Z,78.21
2023-05-17T07:21:10.119Z,78.83
2023-05-17T07:23:36.844Z,78.88
2023-05-17T07:26:03.574Z,79.11
2023-05-17T07:28:30.280Z,78.89
2023-05-17T07:30:56.896Z,78.38
2023-05-17T07:33:23.481Z,78.37
2023-05-17T07:35:51.253Z,78.05
2023-05-17T07:38:20.230Z,77.60
2023-05-17T07:40:46.806Z,78.34
2023-05-17T07:43:18.313Z,78.31
2023-05-17T07:46:12.844Z,78.84
2023-05-17T07:48:39.641Z,78.61
2023-05-17T07:51:11.281Z,78.92
2023-05-17T07:53:42.770Z,78.07
2023-05-17T07:56:11.946Z,78.22
2023-05-17T07:58:41.380Z,77.96
2023-05-17T08:01:15.636Z,77.87
2023-05-17T08:03:50.235Z,77.13
2023-05-17T08:06:17.097Z,75.97
2023-05-17T08:08:44.370Z,76.08
2023-05-17T08:11:14.373Z,76.26
2023-05-17T08:16:29.026Z,78.05
2023-05-17T08:18:56.274Z,77.34
2023-05-17T08:21:23.239Z,77.95
2023-05-17T08:23:52.380Z,77.90
2023-05-17T08:26:21.486Z,78.66
2023-05-17T08:28:48.067Z,79.73
2023-05-17T08:31:14.836Z,79.17
2023-05-17T08:33:44.677Z,79.85
2023-05-17T08:36:14.132Z,79.53
2023-05-17T08:38:43.767Z,79.27
2023-05-17T08:41:10.401Z,79.05
2023-05-17T08:43:38.015Z,77.40
2023-05-17T08:46:04.877Z,78.91
2023-05-17T08:48:38.551Z,78.34
2023-05-17T08:51:05.327Z,77.61
2023-05-17T08:53:32.633Z,77.06
2023-05-17T08:56:06.941Z,76.27
2023-05-17T08:58:52.387Z,77.89
2023-05-17T09:01:27.445Z,76.67
2023-05-17T09:03:55.291Z,76.57
2023-05-17T09:06:26.864Z,76.23
2023-05-17T09:08:55.336Z,77.35
2023-05-17T09:11:49.105Z,76.83
2023-05-17T09:14:17.415Z,78.00
2023-05-17T09:16:46.469Z,78.79
2023-05-17T09:19:17.134Z,78.67
2023-05-17T09:21:48.462Z,77.43
2023-05-17T09:24:15.756Z,78.58
2023-05-17T09:26:43.750Z,77.93
2023-05-17T09:29:11.003Z,78.35
2023-05-17T09:31:44.091Z,76.86
2023-05-17T09:34:14.570Z,75.53
2023-05-17T09:36:44.677Z,74.27
2023-05-17T09:39:13.658Z,73.11
2023-05-17T09:41:48.026Z,72.69
2023-05-17T09:44:21.077Z,73.28
2023-05-17T09:46:48.988Z,71.77
2023-05-17T09:49:19.544Z,70.71
2023-05-17T09:51:50.197Z,70.65
2023-05-17T09:54:19.536Z,70.76
2023-05-17T09:56:56.313Z,69.87
2023-05-17T09:59:23.325Z,71.61
2023-05-17T10:01:50.707Z,72.29
2023-05-17T10:04:32.417Z,70.38
2023-05-17T10:07:10.784Z,68.80
2023-05-17T10:09:43.619Z,69.82
2023-05-17T10:12:16.233Z,67.97
2023-05-17T10:14:54.328Z,69.75
2023-05-17T10:17:28.439Z,68.76
2023-05-17T10:19:56.181Z,68.04
2023-05-17T10:22:24.029Z,69.30
2023-05-17T10:24:54.256Z,68.20
2023-05-17T10:27:23.767Z,67.68
2023-05-17T10:29:53.701Z,66.11
2023-05-17T10:32:34.864Z,63.35
2023-05-17T10:35:14.537Z,63.25
2023-05-17T10:37:43.706Z,62.69
2023-05-17T10:40:16.219Z,60.48
2023-05-17T10:42:55.946Z,61.16
2023-05-17T10:45:30.261Z,59.77
2023-05-17T10:47:58.903Z,58.97
2023-05-17T10:50:27.837Z,59.59
2023-05-17T10:52:58.230Z,59.65
2023-05-17T10:55:40.125Z,60.23
2023-05-17T10:58:20.084Z,60.33
2023-05-17T11:00:53.172Z,59.20
2023-05-17T11:03:22.750Z,60.72
2023-05-17T11:06:21.981Z,61.44
2023-05-17T11:09:14.249Z,62.47
2023-05-17T11:12:05.613Z,62.66
2023-05-17T11:14:45.684Z,62.74
2023-05-17T11:17:18.466Z,61.91
2023-05-17T11:19:56.992Z,61.15
2023-05-17T11:22:24.638Z,62.62
2023-05-17T11:24:56.802Z,62.57
2023-05-17T11:27:27.656Z,62.82
2023-05-17T11:29:58.524Z,57.84
2023-05-17T11:32:33.855Z,57.32
2023-05-17T11:35:10.037Z,56.96
2023-05-17T11:37:40.191Z,58.34
2023-05-17T11:40:12.405Z,57.18
2023-05-17T11:42:43.048Z,57.06
2023-05-17T11:45:12.405Z,56.35
2023-05-17T11:47:40.068Z,57.62
2023-05-17T11:50:07.638Z,57.09
2023-05-17T11:52:39.594Z,56.01
2023-05-17T11:55:10.293Z,57.44
2023-05-17T11:57:41.184Z,58.06
2023-05-17T12:00:27.615Z,55.63
2023-05-17T12:02:58.197Z,57.26
2023-05-17T12:05:30.356Z,56.45
2023-05-17T12:07:57.887Z,58.44
2023-05-17T12:10:24.574Z,57.21
2023-05-17T12:12:51.282Z,57.82
2023-05-17T12:15:18.791Z,58.61
2023-05-17T12:17:50.778Z,59.42
2023-05-17T12:20:18.205Z,59.79
2023-05-17T12:22:56.094Z,59.56
2023-05-17T12:25:28.098Z,60.44
2023-05-17T12:28:14.148Z,59.41
2023-05-17T12:30:50.602Z,58.61
2023-05-17T12:33:18.388Z,59.66
2023-05-17T12:35:48.019Z,59.73
2023-05-17T12:38:14.656Z,59.43
2023-05-17T12:40:49.354Z,58.53
2023-05-17T12:43:20.941Z,59.03
2023-05-17T12:46:03.983Z,59.89
2023-05-17T12:48:31.156Z,61.06
2023-05-17T12:50:57.989Z,62.48
2023-05-17T12:53:26.096Z,62.40
2023-05-17T12:55:59.146Z,62.76
2023-05-17T12:58:26.113Z,60.98
2023-05-17T13:00:56.615Z,60.47
2023-05-17T13:03:26.575Z,58.73
2023-05-17T13:06:14.273Z,58.19
2023-05-17T13:08:45.811Z,58.76
2023-05-17T13:11:15.571Z,59.17
2023-05-17T13:13:42.646Z,56.87
2023-05-17T13:16:09.244Z,57.07
2023-05-17T13:18:51.229Z,53.27
2023-05-17T13:21:20.798Z,52.47
2023-05-17T13:23:48.086Z,48.79
2023-05-17T13:26:15.501Z,47.42
2023-05-17T13:28:42.442Z,46.19
2023-05-17T13:31:09.119Z,47.97
2023-05-17T13:33:38.297Z,46.83
2023-05-17T13:36:08.271Z,47.59
2023-05-17T13:38:37.625Z,47.95
2023-05-17T13:41:04.288Z,47.58
2023-05-17T13:43:33.357Z,46.09
2023-05-17T13:46:05.616Z,44.59
2023-05-17T13:48:32.404Z,44.50
2023-05-17T13:50:59.766Z,42.37
2023-05-17T13:53:28.827Z,40.93
2023-05-17T13:55:58.056Z,40.07
2023-05-17T13:58:24.847Z,37.74
2023-05-17T14:00:51.873Z,37.79
2023-05-17T14:03:19.207Z,37.95
2023-05-17T14:05:49.884Z,38.27
2023-05-17T14:08:20.244Z,36.99
2023-05-17T14:10:47.290Z,38.19
2023-05-17T14:13:18.521Z,37.95
2023-05-17T14:15:45.263Z,39.13
2023-05-17T14:18:12.118Z,40.35
2023-05-17T14:20:38.915Z,40.81
2023-05-17T14:23:06.265Z,41.69
2023-05-17T14:25:33.090Z,42.21
2023-05-17T14:27:59.836Z,41.16
2023-05-17T14:30:26.717Z,41.16
2023-05-17T14:32:56.617Z,41.99
2023-05-17T14:35:25.843Z,44.32
2023-05-17T14:37:54.964Z,44.47
2023-05-17T14:40:21.880Z,46.30
2023-05-17T14:42:50.978Z,51.52
2023-05-17T14:45:18.101Z,55.47
2023-05-17T14:47:44.931Z,57.16
2023-05-17T14:50:11.697Z,58.13
2023-05-17T14:52:44.676Z,59.33
2023-05-17T14:55:13.494Z,60.38
2023-05-17T14:57:40.354Z,60.83
2023-05-17T15:00:10.634Z,57.47
2023-05-17T15:02:37.443Z,54.53
2023-05-17T15:05:04.357Z,52.61
2023-05-17T15:07:34.413Z,51.09
2023-05-17T15:10:04.578Z,49.73
2023-05-17T15:12:32.135Z,51.17
2023-05-17T15:15:01.243Z,53.24
2023-05-17T15:17:36.216Z,55.98
2023-05-17T15:20:06.134Z,58.64
2023-05-17T15:22:33.303Z,59.13
2023-05-17T15:25:00.228Z,60.12
2023-05-17T15:27:26.897Z,61.83
2023-05-17T15:29:53.950Z,63.23
2023-05-17T15:32:21.277Z,63.74
2023-05-17T15:34:48.030Z,64.56
2023-05-17T15:37:17.259Z,64.87
2023-05-17T15:39:44.009Z,65.87
2023-05-17T15:42:10.801Z,67.29
2023-05-17T15:44:37.420Z,66.79
2023-05-17T15:47:06.981Z,66.85
2023-05-17T15:49:33.785Z,66.81
2023-05-17T15:52:00.533Z,67.47
2023-05-17T15:54:29.613Z,67.54
2023-05-17T15:56:58.567Z,67.68
2023-05-17T15:59:25.803Z,68.71
2023-05-17T16:01:52.483Z,69.02
2023-05-17T16:04:19.343Z,69.59
2023-05-17T16:06:46.667Z,69.82
2023-05-17T16:09:14.884Z,70.45
2023-05-17T16:11:43.966Z,71.45
2023-05-17T16:14:10.628Z,71.71
2023-05-17T16:16:37.308Z,72.24
2023-05-17T16:19:04.753Z,71.75
2023-05-17T16:21:32.579Z,72.06
2023-05-17T16:23:59.510Z,72.33
2023-05-17T16:26:31.086Z,71.88
2023-05-17T16:28:59.126Z,72.11
2023-05-17T16:31:25.844Z,72.00
2023-05-17T16:33:52.624Z,72.71
2023-05-17T16:36:22.633Z,72.74
2023-05-17T16:38:52.658Z,72.33
2023-05-17T16:41:21.935Z,72.07
2023-05-17T16:43:48.594Z,71.94
2023-05-17T16:46:20.348Z,72.28
2023-05-17T16:48:47.043Z,72.04
2023-05-17T16:51:13.876Z,71.57
2023-05-17T16:53:40.497Z,72.31
2023-05-17T16:56:12.563Z,72.78
2023-05-17T16:58:41.735Z,73.46
2023-05-17T17:01:08.453Z,73.76
2023-05-17T17:03:35.350Z,73.62
2023-05-17T17:06:02.162Z,74.18
2023-05-17T17:08:29.298Z,73.83
2023-05-17T17:10:58.780Z,73.94
2023-05-17T17:13:25.465Z,74.10
2023-05-17T17:15:55.204Z,74.69
2023-05-17T17:18:22.273Z,74.95
2023-05-17T17:20:48.972Z,74.93
2023-05-17T17:23:15.925Z,74.30
2023-05-17T17:25:45.329Z,74.04
2023-05-17T17:28:14.750Z,73.91
2023-05-17T17:30:44.111Z,73.87
2023-05-17T17:33:11.247Z,74.22
2023-05-17T17:35:40.793Z,75.42
2023-05-17T17:38:10.407Z,75.51
2023-05-17T17:40:39.142Z,75.68
2023-05-17T17:43:05.930Z,75.71
2023-05-17T17:45:32.615Z,75.98
2023-05-17T17:47:59.373Z,75.76
2023-05-17T17:50:26.026Z,76.31
2023-05-17T17:52:55.701Z,77.01
2023-05-17T17:55:22.730Z,77.39
2023-05-17T17:57:50.847Z,77.18
2023-05-17T18:00:17.834Z,77.21
2023-05-17T18:02:46.846Z,76.69
2023-05-17T18:05:15.955Z,76.67
2023-05-17T18:07:43.012Z,76.41
2023-05-17T18:10:09.845Z,76.40
2023-05-17T18:12:36.963Z,76.46
2023-05-17T18:15:06.643Z,75.73
2023-05-17T18:17:35.668Z,76.20
2023-05-17T18:20:02.353Z,76.13
2023-05-17T18:22:33.620Z,75.49
2023-05-17T18:25:00.515Z,74.86
2023-05-17T18:27:27.378Z,75.68
2023-05-17T18:29:54.016Z,76.14
2023-05-17T18:32:23.380Z,75.87
2023-05-17T18:34:52.831Z,75.95
2023-05-17T18:37:19.752Z,76.32
2023-05-17T18:39:49.288Z,76.12
2023-05-17T18:42:18.433Z,76.36
2023-05-17T18:44:45.117Z,76.15
2023-05-17T18:47:12.218Z,76.20
2023-05-17T18:49:42.399Z,76.01
2023-05-17T18:52:09.147Z,74.95
2023-05-17T18:54:40.601Z,75.49
2023-05-17T18:57:10.122Z,75.82
2023-05-17T18:59:36.903Z,75.92
2023-05-17T19:02:06.556Z,75.92
2023-05-17T19:04:33.356Z,75.56
2023-05-17T19:07:02.403Z,76.04
2023-05-17T19:09:33.593Z,75.74
2023-05-17T19:12:00.908Z,75.78
2023-05-17T19:14:32.462Z,74.97
2023-05-17T19:16:59.887Z,75.07
2023-05-17T19:19:26.895Z,75.25
2023-05-17T19:21:53.885Z,75.01
2023-05-17T19:24:25.034Z,74.53
2023-05-17T19:26:52.128Z,74.64
2023-05-17T19:29:22.358Z,74.34
2023-05-17T19:31:49.406Z,73.60
2023-05-17T19:34:18.486Z,74.50
2023-05-17T19:36:45.335Z,74.88
2023-05-17T19:39:14.456Z,75.39
2023-05-17T19:41:41.205Z,75.51
2023-05-17T19:44:11.642Z,75.34
2023-05-17T19:46:38.632Z,75.21
2023-05-17T19:49:05.446Z,75.01
2023-05-17T19:51:34.606Z,74.48
2023-05-17T19:54:01.289Z,74.87
2023-05-17T19:56:27.953Z,73.83
2023-05-17T19:58:57.143Z,73.34
2023-05-17T20:01:23.943Z,73.83
2023-05-17T20:03:51.030Z,74.34
2023-05-17T20:06:20.146Z,74.58
2023-05-17T20:08:51.720Z,74.69
2023-05-17T20:11:18.453Z,74.50
2023-05-17T20:13:45.166Z,73.65
2023-05-17T20:16:14.456Z,73.73
2023-05-17T20:18:47.334Z,74.39
2023-05-17T20:21:19.938Z,73.42
2023-05-17T20:23:47.315Z,73.87
2023-05-17T20:26:25.779Z,72.28
2023-05-17T20:28:57.588Z,72.55
2023-05-17T20:31:27.135Z,72.32
2023-05-17T20:33:54.862Z,72.41
2023-05-17T20:36:21.617Z,73.03
2023-05-17T20:38:50.564Z,73.24
2023-05-17T20:41:19.773Z,73.34
2023-05-17T20:43:52.556Z,73.40
2023-05-17T20:46:19.514Z,73.70
2023-05-17T20:48:49.980Z,73.43
2023-05-17T20:51:19.758Z,73.47
2023-05-17T20:53:46.681Z,72.62
2023-05-17T20:56:19.465Z,73.18
2023-05-17T20:58:49.204Z,73.18
2023-05-17T21:01:16.019Z,73.77
2023-05-17T21:03:43.578Z,73.37
2023-05-17T21:06:10.850Z,73.79
2023-05-17T21:08:38.015Z,73.58
2023-05-17T21:11:10.448Z,73.67
2023-05-17T21:13:37.393Z,72.43
2023-05-17T21:16:09.219Z,72.38
2023-05-17T21:18:35.961Z,71.75
2023-05-17T21:21:02.716Z,72.07
2023-05-17T21:23:31.864Z,72.46
2023-05-17T21:25:58.497Z,72.12
2023-05-17T21:28:25.475Z,72.09
2023-05-17T21:30:52.666Z,72.75
2023-05-17T21:33:20.068Z,72.84
2023-05-17T21:35:46.909Z,72.27
2023-05-17T21:38:15.794Z,72.25
2023-05-17T21:40:45.005Z,71.50
2023-05-17T21:43:14.393Z,72.04
2023-05-17T21:45:41.961Z,71.28
2023-05-17T21:48:11.304Z,71.40
2023-05-17T21:50:38.052Z,71.09
2023-05-17T21:53:04.666Z,71.14
2023-05-17T21:55:40.867Z,71.38
2023-05-17T21:58:16.380Z,71.29
2023-05-17T22:00:45.466Z,71.41
2023-05-17T22:03:14.891Z,71.10
2023-05-17T22:05:41.760Z,70.92
2023-05-17T22:08:10.858Z,70.20
2023-05-17T22:10:37.610Z,70.39
2023-05-17T22:13:06.079Z,69.82
2023-05-17T22:15:35.419Z,69.95
2023-05-17T22:18:05.267Z,70.34
2023-05-17T22:20:32.312Z,71.15
2023-05-17T22:23:01.524Z,70.61
2023-05-17T22:25:28.161Z,70.99
2023-05-17T22:27:57.790Z,71.37
2023-05-17T22:30:24.660Z,71.34
2023-05-17T22:32:57.154Z,70.81
2023-05-17T22:35:24.381Z,70.88
2023-05-17T22:37:53.342Z,71.02
2023-05-17T22:40:25.212Z,71.13
2023-05-17T22:42:54.525Z,70.73
2023-05-17T22:45:21.263Z,71.20
2023-05-17T22:47:48.080Z,71.60
2023-05-17T22:50:19.133Z,71.07
2023-05-17T22:52:50.810Z,71.19
2023-05-17T22:55:20.169Z,70.18
2023-05-17T22:57:47.486Z,69.97
2023-05-17T23:00:14.773Z,70.15
2023-05-17T23:02:44.056Z,69.87
2023-05-17T23:05:14.152Z,70.83
2023-05-17T23:07:43.954Z,70.43
2023-05-17T23:10:12.785Z,70.24
2023-05-17T23:12:39.544Z,71.21
2023-05-17T23:15:06.874Z,71.16
2023-05-17T23:17:36.602Z,70.79
2023-05-17T23:20:12.427Z,70.44
2023-05-17T23:22:39.367Z,71.05
2023-05-17T23:25:08.692Z,71.79
2023-05-17T23:27:36.142Z,73.66
2023-05-17T23:30:06.197Z,75.14
2023-05-17T23:32:35.549Z,78.56
2023-05-17T23:35:05.353Z,81.87
2023-05-17T23:37:37.765Z,83.03
2023-05-17T23:40:07.146Z,84.43
2023-05-17T23:42:36.431Z,85.39
2023-05-17T23:45:03.616Z,86.26
2023-05-17T23:47:33.796Z,86.85
2023-05-17T23:50:00.695Z,87.32
2023-05-17T23:52:30.032Z,87.95
2023-05-17T23:55:00.067Z,88.34
2023-05-17T23:57:27.095Z,89.14
2023-05-17T23:59:58.812Z,88.50
